createdAt,value
2018-09-12T00:03:35.803Z,18.41
2018-09-12T00:09:40.740Z,18.67
2018-09-12T00:15:45.660Z,18.56
2018-09-12T00:21:50.835Z,18.59
2018-09-12T00:27:55.711Z,18.65
2018-09-12T00:34:00.705Z,18.48
2018-09-12T00:40:06.322Z,18.80
2018-09-12T00:46:11.343Z,18.65
2018-09-12T00:52:16.546Z,18.51
2018-09-12T00:58:21.341Z,18.56
2018-09-12T01:04:26.264Z,18.51
2018-09-12T01:10:31.051Z,18.64
2018-09-12T01:16:36.159Z,18.57
2018-09-12T01:22:41.870Z,18.92
2018-09-12T01:28:47.036Z,18.63
2018-09-12T01:34:51.901Z,18.65
2018-09-12T01:40:56.762Z,18.80
2018-09-12T01:47:01.615Z,18.70
2018-09-12T01:53:06.577Z,18.80
2018-09-12T01:59:13.659Z,18.66
2018-09-12T02:05:18.909Z,18.37
2018-09-12T02:11:24.037Z,18.46
2018-09-12T02:17:28.845Z,18.40
2018-09-12T02:23:33.601Z,17.99
2018-09-12T02:29:38.423Z,18.04
2018-09-12T02:35:48.586Z,17.84
2018-09-12T02:41:53.369Z,17.85
2018-09-12T02:47:58.162Z,17.71
2018-09-12T02:54:02.892Z,17.89
2018-09-12T03:00:08.776Z,17.69
2018-09-12T03:06:14.831Z,17.69
2018-09-12T03:12:19.688Z,17.87
2018-09-12T03:18:24.452Z,17.62
2018-09-12T03:24:29.431Z,17.78
2018-09-12T03:30:34.267Z,17.86
2018-09-12T03:36:39.198Z,17.69
2018-09-12T03:42:44.197Z,17.66
2018-09-12T03:48:49.141Z,17.72
2018-09-12T03:54:54.244Z,17.55
2018-09-12T04:00:59.028Z,17.56
2018-09-12T04:07:03.885Z,17.52
2018-09-12T04:13:08.967Z,17.54
2018-09-12T04:19:14.231Z,17.31
2018-09-12T04:25:18.949Z,17.31
2018-09-12T04:31:24.009Z,17.30
2018-09-12T04:37:28.793Z,17.27
2018-09-12T04:43:33.659Z,17.18
2018-09-12T04:49:38.386Z,17.20
2018-09-12T04:55:44.597Z,17.08
2018-09-12T05:01:49.345Z,16.74
2018-09-12T05:07:54.205Z,16.64
2018-09-12T05:13:59.263Z,16.64
2018-09-12T05:20:04.064Z,16.57
2018-09-12T05:26:09.226Z,16.70
2018-09-12T05:32:14.209Z,16.72
2018-09-12T05:38:18.953Z,16.74
2018-09-12T05:44:23.939Z,16.84
2018-09-12T05:50:28.677Z,17.04
2018-09-12T05:56:33.462Z,17.21
2018-09-12T06:02:38.525Z,17.22
2018-09-12T06:08:43.704Z,17.50
2018-09-12T06:14:48.687Z,17.57
2018-09-12T06:20:53.433Z,17.69
2018-09-12T06:26:58.223Z,17.88
2018-09-12T06:33:03.146Z,18.13
2018-09-12T06:39:12.058Z,19.21
2018-09-12T06:45:17.263Z,24.59
2018-09-12T06:51:22.210Z,29.30
2018-09-12T06:57:26.908Z,31.60
2018-09-12T07:03:31.760Z,32.83
2018-09-12T07:09:36.790Z,34.08
2018-09-12T07:15:42.449Z,33.21
2018-09-12T07:21:47.204Z,29.80
2018-09-12T07:27:52.067Z,27.16
2018-09-12T07:33:57.006Z,24.89
2018-09-12T07:40:02.259Z,23.43
2018-09-12T07:46:07.188Z,23.20
2018-09-12T07:52:12.299Z,23.37
2018-09-12T07:58:17.306Z,23.81
2018-09-12T08:04:21.983Z,23.89
2018-09-12T08:10:26.820Z,23.73
2018-09-12T08:16:31.564Z,24.66
2018-09-12T08:22:36.358Z,25.06
2018-09-12T08:28:42.002Z,25.42
2018-09-12T08:34:46.784Z,25.68
2018-09-12T08:40:51.518Z,26.12
2018-09-12T08:46:56.474Z,26.45
2018-09-12T08:53:01.411Z,26.52
2018-09-12T08:59:06.504Z,26.46
2018-09-12T09:05:12.888Z,27.05
2018-09-12T09:11:17.745Z,28.21
2018-09-12T09:17:22.511Z,28.32
2018-09-12T09:23:27.132Z,28.52
2018-09-12T09:29:31.933Z,29.18
2018-09-12T09:35:36.882Z,30.03
2018-09-12T09:41:42.589Z,30.90
2018-09-12T09:47:47.643Z,31.48
2018-09-12T09:53:52.697Z,31.90
2018-09-12T09:59:57.458Z,31.68
2018-09-12T10:06:07.277Z,31.79
2018-09-12T10:12:13.268Z,32.74
2018-09-12T10:18:18.192Z,33.12
2018-09-12T10:24:23.419Z,33.34
2018-09-12T10:30:28.061Z,32.30
2018-09-12T10:36:33.336Z,32.48
2018-09-12T10:42:38.102Z,33.71
2018-09-12T10:48:44.475Z,34.76
2018-09-12T10:54:49.529Z,33.53
2018-09-12T11:00:54.538Z,34.72
2018-09-12T11:06:59.223Z,34.43
2018-09-12T11:13:03.987Z,34.97
2018-09-12T11:19:09.208Z,33.89
2018-09-12T11:25:14.202Z,33.74
2018-09-12T11:31:19.032Z,34.22
2018-09-12T11:37:24.101Z,33.30
2018-09-12T11:43:29.021Z,31.80
2018-09-12T11:49:33.790Z,29.67
2018-09-12T11:55:39.207Z,30.30
2018-09-12T12:01:44.327Z,31.89
2018-09-12T12:07:49.061Z,32.51
2018-09-12T12:13:54.478Z,32.91
2018-09-12T12:19:59.235Z,31.88
2018-09-12T12:26:04.047Z,29.10
2018-09-12T12:32:09.009Z,28.30
2018-09-12T12:38:14.060Z,28.95
2018-09-12T12:44:18.819Z,29.61
2018-09-12T12:50:23.744Z,29.57
2018-09-12T12:56:28.485Z,31.31
2018-09-12T13:02:33.296Z,31.97
2018-09-12T13:08:38.204Z,32.95
2018-09-12T13:14:44.344Z,32.10
2018-09-12T13:20:55.833Z,31.62
2018-09-12T13:27:00.595Z,32.47
2018-09-12T13:33:05.387Z,31.09
2018-09-12T13:39:17.264Z,31.84
2018-09-12T13:45:22.334Z,31.88
2018-09-12T13:51:27.065Z,32.26
2018-09-12T13:57:31.752Z,31.65
2018-09-12T14:03:36.519Z,31.52
2018-09-12T14:09:42.551Z,32.06
2018-09-12T14:15:47.467Z,31.81
2018-09-12T14:21:52.214Z,32.16
2018-09-12T14:27:57.040Z,32.41
2018-09-12T14:34:01.791Z,33.04
2018-09-12T14:40:07.165Z,32.60
2018-09-12T14:46:12.224Z,33.02
2018-09-12T14:52:16.949Z,30.50
2018-09-12T14:58:21.686Z,28.30
2018-09-12T15:04:26.388Z,26.60
2018-09-12T15:10:31.325Z,25.30
2018-09-12T15:16:36.053Z,24.29
2018-09-12T15:22:41.993Z,23.59
2018-09-12T15:28:47.126Z,23.09
2018-09-12T15:34:51.955Z,22.80
2018-09-12T15:40:56.720Z,22.58
2018-09-12T15:47:01.528Z,22.39
2018-09-12T15:53:06.879Z,22.15
2018-09-12T15:59:13.797Z,21.76
2018-09-12T16:05:18.543Z,21.22
2018-09-12T16:11:23.330Z,21.01
2018-09-12T16:17:28.200Z,20.92
2018-09-12T16:23:33.083Z,20.75
2018-09-12T16:29:37.818Z,20.58
2018-09-12T16:35:43.095Z,20.15
2018-09-12T16:41:47.783Z,20.18
2018-09-12T16:47:52.647Z,20.05
2018-09-12T16:53:57.781Z,19.76
2018-09-12T17:00:02.580Z,19.59
2018-09-12T17:06:07.470Z,19.23
2018-09-12T17:12:12.762Z,19.26
2018-09-12T17:18:17.671Z,18.88
2018-09-12T17:24:22.448Z,18.77
2018-09-12T17:30:27.304Z,18.83
2018-09-12T17:36:32.272Z,18.73
2018-09-12T17:42:37.118Z,18.59
2018-09-12T17:48:42.086Z,18.55
2018-09-12T17:54:47.228Z,18.28
2018-09-12T18:00:52.126Z,18.09
2018-09-12T18:06:56.915Z,18.22
2018-09-12T18:13:01.662Z,17.89
2018-09-12T18:19:06.888Z,17.80
2018-09-12T18:25:11.555Z,17.77
2018-09-12T18:31:16.354Z,17.66
2018-09-12T18:37:21.137Z,17.72
2018-09-12T18:43:25.946Z,17.64
2018-09-12T18:49:30.932Z,17.33
2018-09-12T18:55:35.965Z,17.12
2018-09-12T19:01:40.884Z,17.05
2018-09-12T19:07:46.700Z,16.93
2018-09-12T19:13:51.596Z,16.89
2018-09-12T19:19:56.528Z,16.86
2018-09-12T19:26:01.865Z,16.42
2018-09-12T19:32:06.620Z,16.47
2018-09-12T19:38:11.801Z,16.36
2018-09-12T19:44:16.748Z,16.36
2018-09-12T19:50:21.717Z,16.27
2018-09-12T19:56:26.731Z,16.27
2018-09-12T20:02:33.241Z,16.20
2018-09-12T20:08:38.267Z,16.29
2018-09-12T20:14:43.329Z,16.32
2018-09-12T20:20:48.598Z,16.35
2018-09-12T20:26:53.547Z,16.61
2018-09-12T20:32:58.242Z,16.72
2018-09-12T20:39:03.411Z,16.77
2018-09-12T20:45:08.570Z,16.99
2018-09-12T20:51:13.395Z,16.86
2018-09-12T20:57:18.314Z,16.99
2018-09-12T21:03:23.205Z,16.93
2018-09-12T21:09:28.013Z,17.04
2018-09-12T21:15:32.773Z,16.94
2018-09-12T21:21:37.591Z,16.86
2018-09-12T21:27:42.362Z,16.81
2018-09-12T21:33:47.499Z,16.98
2018-09-12T21:39:52.347Z,16.97
2018-09-12T21:45:57.153Z,16.70
2018-09-12T21:52:01.982Z,16.75
2018-09-12T21:58:07.503Z,16.73
2018-09-12T22:04:12.550Z,16.74
2018-09-12T22:10:17.492Z,16.64
2018-09-12T22:16:22.291Z,16.87
2018-09-12T22:22:27.291Z,16.65
2018-09-12T22:28:32.061Z,16.59
2018-09-12T22:34:36.912Z,16.38
2018-09-12T22:40:42.831Z,16.74
2018-09-12T22:46:47.786Z,16.62
2018-09-12T22:52:52.500Z,16.85
2018-09-12T22:58:57.292Z,16.76
2018-09-12T23:05:02.293Z,16.93
2018-09-12T23:11:07.152Z,16.69
2018-09-12T23:17:12.760Z,16.32
2018-09-12T23:23:17.590Z,16.10
2018-09-12T23:29:22.266Z,16.11
2018-09-12T23:35:27.555Z,16.26
2018-09-12T23:41:32.399Z,16.30
2018-09-12T23:47:37.192Z,16.14
2018-09-12T23:53:42.198Z,16.13
2018-09-12T23:59:47.345Z,16.35
